createdAt,value
2023-04-06T07:21:40.260Z,62.09
2023-04-06T07:24:10.093Z,61.02
2023-04-06T07:26:38.181Z,60.47
2023-04-06T07:29:06.557Z,60.56
2023-04-06T07:31:36.991Z,61.08
2023-04-06T07:34:03.589Z,60.34
2023-04-06T07:36:30.346Z,59.11
2023-04-06T07:38:56.856Z,59.90
2023-04-06T07:41:23.709Z,58.49
2023-04-06T07:43:51.283Z,55.85
2023-04-06T07:46:19.309Z,51.72
2023-04-06T07:48:45.978Z,51.45
2023-04-06T07:51:12.719Z,51.92
2023-04-06T07:53:39.490Z,47.94
2023-04-06T07:56:06.482Z,48.34
2023-04-06T07:58:33.198Z,48.04
2023-04-06T08:03:40.378Z,48.43
2023-04-06T08:06:08.966Z,49.52
2023-04-06T08:13:59.593Z,47.77
2023-04-06T08:16:26.011Z,46.79
2023-04-06T08:18:52.624Z,45.63
2023-04-06T08:21:19.051Z,45.94
2023-04-06T08:23:45.435Z,42.94
2023-04-06T08:26:11.938Z,42.73
2023-04-06T08:28:38.371Z,42.69
2023-04-06T08:31:04.807Z,41.89
2023-04-06T08:33:31.210Z,43.07
2023-04-06T08:35:57.586Z,44.20
2023-04-06T08:38:23.998Z,44.71
2023-04-06T08:40:50.372Z,41.56
2023-04-06T08:43:16.945Z,42.51
2023-04-06T08:45:43.282Z,40.61
2023-04-06T08:48:09.888Z,40.46
2023-04-06T08:50:36.431Z,41.28
2023-04-06T08:53:02.932Z,41.07
2023-04-06T08:55:29.322Z,40.21
2023-04-06T08:57:56.148Z,40.82
2023-04-06T09:00:22.499Z,41.15
2023-04-06T09:02:49.493Z,40.45
2023-04-06T09:07:59.130Z,39.24
2023-04-06T09:15:50.127Z,38.83
2023-04-06T09:18:25.148Z,39.21
2023-04-06T09:20:55.578Z,38.26
2023-04-06T09:28:49.532Z,37.42
2023-04-06T09:31:16.989Z,38.05
2023-04-06T09:36:31.847Z,35.21
2023-04-06T09:39:02.356Z,35.35
2023-04-06T09:44:11.308Z,34.46
2023-04-06T09:46:57.927Z,32.08
2023-04-06T09:57:28.073Z,33.08
2023-04-06T09:59:54.936Z,35.14
2023-04-06T10:02:23.388Z,34.65
2023-04-06T10:04:53.639Z,35.66
2023-04-06T10:07:28.348Z,35.25
2023-04-06T10:09:56.982Z,34.91
2023-04-06T10:12:23.777Z,34.29
2023-04-06T10:17:31.430Z,34.63
2023-04-06T10:25:23.707Z,35.32
2023-04-06T10:27:50.100Z,35.41
2023-04-06T10:30:16.490Z,35.55
2023-04-06T10:32:43.147Z,35.52
2023-04-06T10:35:09.560Z,35.54
2023-04-06T10:37:36.046Z,34.94
2023-04-06T10:40:02.399Z,36.23
2023-04-06T10:42:28.899Z,35.58
2023-04-06T10:44:55.273Z,36.19
2023-04-06T10:47:21.830Z,36.95
2023-04-06T10:49:48.597Z,36.17
2023-04-06T10:52:15.303Z,33.58
2023-04-06T10:54:41.708Z,33.67
2023-04-06T10:57:08.273Z,33.76
2023-04-06T10:59:34.784Z,32.53
2023-04-06T11:02:01.347Z,31.39
2023-04-06T11:04:27.774Z,29.88
2023-04-06T11:06:54.369Z,31.63
2023-04-06T11:09:20.867Z,29.24
2023-04-06T11:11:47.323Z,29.47
2023-04-06T11:14:13.727Z,28.49
2023-04-06T11:16:40.122Z,30.52
2023-04-06T11:19:06.576Z,28.92
2023-04-06T11:21:33.107Z,28.66
2023-04-06T11:23:59.527Z,29.47
2023-04-06T11:26:25.939Z,30.69
2023-04-06T11:28:52.326Z,31.40
2023-04-06T11:31:20.617Z,29.79
2023-04-06T11:33:55.227Z,29.36
2023-04-06T11:36:22.047Z,30.00
2023-04-06T11:41:29.459Z,32.02
2023-04-06T11:44:00.465Z,30.31
2023-04-06T11:46:35.055Z,29.04
2023-04-06T11:49:01.954Z,28.12
2023-04-06T11:54:09.064Z,28.68
2023-04-06T11:59:16.254Z,28.06
2023-04-06T12:01:43.650Z,27.59
2023-04-06T12:04:12.233Z,27.77
2023-04-06T12:06:43.129Z,27.19
2023-04-06T12:09:09.918Z,27.56
2023-04-06T12:11:37.221Z,28.62
2023-04-06T12:16:46.066Z,28.54
2023-04-06T12:19:14.458Z,26.96
2023-04-06T12:24:21.518Z,27.22
2023-04-06T12:26:51.637Z,28.61
2023-04-06T12:32:03.705Z,25.22
2023-04-06T12:34:33.570Z,24.59
2023-04-06T12:37:00.420Z,25.45
2023-04-06T12:39:27.401Z,26.72
2023-04-06T12:41:54.751Z,25.10
2023-04-06T12:44:22.861Z,24.60
2023-04-06T12:46:51.535Z,25.02
2023-04-06T12:49:18.362Z,24.11
2023-04-06T13:00:10.786Z,25.28
2023-04-06T13:02:37.369Z,23.17
2023-04-06T13:05:03.844Z,23.16
2023-04-06T13:07:30.326Z,24.17
2023-04-06T13:09:56.808Z,22.48
2023-04-06T13:12:23.198Z,22.03
2023-04-06T13:14:49.541Z,22.35
2023-04-06T13:17:15.929Z,21.52
2023-04-06T13:19:42.306Z,21.58
2023-04-06T13:22:10.347Z,21.22
2023-04-06T13:24:37.634Z,22.35
2023-04-06T13:27:04.955Z,21.49
2023-04-06T13:29:31.666Z,20.94
2023-04-06T13:31:59.946Z,22.37
2023-04-06T13:34:27.429Z,21.67
2023-04-06T13:36:54.014Z,21.82
2023-04-06T13:39:23.475Z,23.01
2023-04-06T13:47:12.471Z,21.85
2023-04-06T13:49:39.194Z,24.82
2023-04-06T13:54:46.235Z,21.74
2023-04-06T13:57:12.810Z,22.34
2023-04-06T13:59:40.478Z,22.86
2023-04-06T14:02:17.572Z,22.32
2023-04-06T14:10:11.122Z,21.29
2023-04-06T14:12:39.436Z,23.31
2023-04-06T14:17:48.293Z,21.15
2023-04-06T14:20:14.894Z,22.59
2023-04-06T14:25:22.041Z,22.06
2023-04-06T14:30:38.090Z,22.91
2023-04-06T14:35:51.438Z,23.20
2023-04-06T14:38:23.476Z,25.08
2023-04-06T14:43:30.745Z,25.11
2023-04-06T14:48:40.720Z,21.92
2023-04-06T14:56:48.679Z,22.21
2023-04-06T15:01:56.618Z,23.28
2023-04-06T15:04:23.342Z,23.87
2023-04-06T15:06:49.793Z,25.30
2023-04-06T15:09:16.648Z,25.96
2023-04-06T15:11:44.145Z,26.04
2023-04-06T15:14:10.581Z,25.94
2023-04-06T15:16:37.040Z,26.04
2023-04-06T15:19:03.527Z,26.22
2023-04-06T15:21:29.913Z,27.02
2023-04-06T15:23:56.273Z,25.99
2023-04-06T15:26:22.858Z,25.91
2023-04-06T15:28:49.376Z,26.48
2023-04-06T15:31:28.383Z,26.90
2023-04-06T15:34:00.751Z,26.70
2023-04-06T15:36:28.094Z,26.56
2023-04-06T15:38:58.612Z,26.86
2023-04-06T15:44:06.461Z,27.06
2023-04-06T15:46:33.033Z,27.79
2023-04-06T15:51:39.768Z,29.41
2023-04-06T15:54:06.161Z,27.95
2023-04-06T15:56:32.498Z,25.90
2023-04-06T15:59:01.763Z,26.53
2023-04-06T16:01:28.326Z,26.01
2023-04-06T16:03:54.914Z,27.00
2023-04-06T16:06:21.498Z,25.76
2023-04-06T16:08:48.126Z,27.51
2023-04-06T16:11:14.794Z,26.47
2023-04-06T16:13:43.165Z,27.41
2023-04-06T16:21:32.460Z,27.16
2023-04-06T16:24:00.001Z,27.78
2023-04-06T16:26:26.574Z,27.41
2023-04-06T16:28:53.135Z,28.34
2023-04-06T16:31:20.153Z,25.94
2023-04-06T16:33:46.717Z,27.51
2023-04-06T16:36:13.425Z,25.83
2023-04-06T16:38:39.947Z,26.89
2023-04-06T16:41:06.391Z,26.27
2023-04-06T16:43:33.269Z,27.29
2023-04-06T16:45:59.719Z,27.40
2023-04-06T16:48:26.265Z,27.01
2023-04-06T16:50:52.692Z,27.42
2023-04-06T16:53:19.290Z,26.82
2023-04-06T16:55:45.754Z,28.73
2023-04-06T16:58:12.130Z,27.81
2023-04-06T17:00:38.501Z,27.91
2023-04-06T17:03:05.032Z,28.63
2023-04-06T17:05:31.522Z,29.36
2023-04-06T17:07:57.956Z,29.60
2023-04-06T17:10:33.437Z,29.52
2023-04-06T17:13:00.766Z,29.63
2023-04-06T17:15:27.411Z,29.26
2023-04-06T17:17:53.952Z,29.13
2023-04-06T17:20:20.463Z,29.73
2023-04-06T17:22:46.874Z,29.36
2023-04-06T17:25:14.374Z,30.07
2023-04-06T17:27:40.746Z,30.34
2023-04-06T17:30:07.142Z,31.44
2023-04-06T17:32:33.587Z,31.47
2023-04-06T17:34:59.959Z,31.49
2023-04-06T17:37:26.320Z,30.61
2023-04-06T17:39:52.723Z,30.35
2023-04-06T17:42:19.190Z,31.38
2023-04-06T17:44:46.641Z,31.28
2023-04-06T17:47:13.156Z,30.22
2023-04-06T17:49:39.480Z,30.23
2023-04-06T17:52:05.835Z,29.93
2023-04-06T17:54:35.449Z,31.39
2023-04-06T17:57:04.834Z,33.38
2023-04-06T17:59:31.348Z,33.17
2023-04-06T18:01:57.886Z,33.54
2023-04-06T18:04:24.411Z,32.71
2023-04-06T18:06:50.879Z,32.09
2023-04-06T18:09:17.395Z,32.25
2023-04-06T18:11:44.072Z,31.72
2023-04-06T18:14:10.537Z,32.36
2023-04-06T18:16:36.968Z,32.85
2023-04-06T18:19:03.841Z,32.86
2023-04-06T18:21:30.719Z,33.62
2023-04-06T18:23:58.872Z,32.44
2023-04-06T18:26:27.903Z,34.78
2023-04-06T18:28:54.777Z,38.68
2023-04-06T18:31:21.642Z,37.40
2023-04-06T18:33:48.274Z,37.88
2023-04-06T18:36:14.826Z,37.01
2023-04-06T18:38:41.676Z,37.68
2023-04-06T18:41:08.063Z,36.10
2023-04-06T18:43:34.474Z,35.71
2023-04-06T18:46:01.092Z,36.23
2023-04-06T18:48:27.503Z,37.37
2023-04-06T18:50:53.895Z,37.35
2023-04-06T18:53:20.337Z,36.88
2023-04-06T18:55:46.713Z,39.16
2023-04-06T18:58:13.094Z,39.05
2023-04-06T19:00:39.497Z,36.06
2023-04-06T19:03:06.159Z,38.17
2023-04-06T19:05:32.610Z,38.47
2023-04-06T19:07:58.964Z,38.70
2023-04-06T19:10:25.322Z,36.16
2023-04-06T19:12:51.674Z,36.52
2023-04-06T19:15:18.046Z,35.00
2023-04-06T19:17:44.899Z,34.50
2023-04-06T19:20:11.335Z,35.64
2023-04-06T19:22:37.738Z,36.24
2023-04-06T19:25:04.146Z,35.96
2023-04-06T19:27:30.585Z,36.38
2023-04-06T19:29:56.950Z,36.21
2023-04-06T19:32:23.528Z,36.75
2023-04-06T19:34:49.967Z,36.43
2023-04-06T19:37:16.382Z,36.38
2023-04-06T19:39:43.099Z,38.50
